UAL1053 KBOS-KEWR
Flight info
| Callsign | UAL1053 |
|---|---|
| Flight time | 0h 51m |
| Altitude | 16000 |
| Route | PATSS7 PATSS NELIE FLOSI4 |
| Aircraft | B739/M-SDE2E3FGHIRWXY/LB1 |
Departure
| Time | 2026-05-06 19:12 |
|---|---|
| Airport | Boston Logan International Airport (KBOS) |
Arrival
| Time | 2026-05-06 20:03 |
|---|---|
| Airport | Newark Liberty International Airport (KEWR) |
| Time | Latitude | Longitude | Altitude | Speed | Heading |
|---|---|---|---|---|---|
| 2026-05-06 18:49 | 42.36289 | -71.01618 | 28 ft | 0 kts | 338° |
| 2026-05-06 19:02 | 42.36286 | -71.01616 | 24 ft | 3 kts | 338° |
| 2026-05-06 19:03 | 42.36263 | -71.01603 | 26 ft | 2 kts | 338° |
| 2026-05-06 19:03 | 42.36250 | -71.01596 | 27 ft | 4 kts | 327° |
| 2026-05-06 19:03 | 42.36227 | -71.01561 | 29 ft | 4 kts | 293° |
| 2026-05-06 19:03 | 42.36218 | -71.01528 | 28 ft | 4 kts | 281° |
| 2026-05-06 19:04 | 42.36217 | -71.01505 | 28 ft | 4 kts | 253° |
| 2026-05-06 19:04 | 42.36229 | -71.01483 | 27 ft | 3 kts | 199° |
| 2026-05-06 19:04 | 42.36250 | -71.01473 | 28 ft | 0 kts | 199° |
| 2026-05-06 19:07 | 42.36250 | -71.01474 | 28 ft | 1 kts | 199° |
| 2026-05-06 19:07 | 42.36223 | -71.01486 | 28 ft | 7 kts | 198° |
| 2026-05-06 19:07 | 42.36180 | -71.01444 | 27 ft | 11 kts | 97° |
| 2026-05-06 19:08 | 42.36238 | -71.01382 | 26 ft | 13 kts | 20° |
| 2026-05-06 19:08 | 42.36332 | -71.01335 | 26 ft | 16 kts | 20° |
| 2026-05-06 19:08 | 42.36433 | -71.01286 | 26 ft | 17 kts | 20° |
| 2026-05-06 19:08 | 42.36556 | -71.01226 | 25 ft | 21 kts | 20° |
| 2026-05-06 19:09 | 42.36689 | -71.01162 | 25 ft | 21 kts | 19° |
| 2026-05-06 19:09 | 42.36798 | -71.01163 | 24 ft | 16 kts | 319° |
| 2026-05-06 19:09 | 42.36894 | -71.01217 | 26 ft | 17 kts | 36° |
| 2026-05-06 19:09 | 42.36995 | -71.01106 | 24 ft | 21 kts | 31° |
| 2026-05-06 19:10 | 42.37133 | -71.01017 | 26 ft | 23 kts | 26° |
| 2026-05-06 19:10 | 42.37287 | -71.00915 | 27 ft | 26 kts | 26° |
| 2026-05-06 19:10 | 42.37455 | -71.00832 | 24 ft | 26 kts | 20° |
| 2026-05-06 19:10 | 42.37632 | -71.00746 | 28 ft | 26 kts | 19° |
| 2026-05-06 19:11 | 42.37803 | -71.00664 | 27 ft | 22 kts | 20° |
| 2026-05-06 19:11 | 42.37818 | -71.00516 | 28 ft | 17 kts | 108° |
| 2026-05-06 19:11 | 42.37759 | -71.00491 | 26 ft | 14 kts | 200° |
| 2026-05-06 19:11 | 42.37459 | -71.00635 | 27 ft | 80 kts | 199° |
| 2026-05-06 19:12 | 42.36743 | -71.00980 | 25 ft | 136 kts | 199° |
| 2026-05-06 19:12 | 42.35751 | -71.01459 | 356 ft | 155 kts | 200° |
| 2026-05-06 19:12 | 42.34679 | -71.01846 | 896 ft | 168 kts | 177° |
| 2026-05-06 19:12 | 42.33631 | -71.01085 | 1534 ft | 184 kts | 141° |
| 2026-05-06 19:13 | 42.32796 | -70.99718 | 2138 ft | 201 kts | 137° |
| 2026-05-06 19:13 | 42.31904 | -70.98115 | 2952 ft | 222 kts | 130° |
| 2026-05-06 19:13 | 42.31386 | -70.96026 | 3969 ft | 247 kts | 111° |
| 2026-05-06 19:13 | 42.31380 | -70.93540 | 4756 ft | 282 kts | 86° |
| 2026-05-06 19:14 | 42.31788 | -70.90886 | 5764 ft | 294 kts | 85° |
| 2026-05-06 19:14 | 42.32212 | -70.88073 | 6604 ft | 312 kts | 86° |
| 2026-05-06 19:14 | 42.32637 | -70.85158 | 7635 ft | 318 kts | 86° |
| 2026-05-06 19:14 | 42.33049 | -70.82191 | 8716 ft | 322 kts | 91° |
| 2026-05-06 19:15 | 42.32907 | -70.79273 | 9678 ft | 303 kts | 120° |
| 2026-05-06 19:15 | 42.32070 | -70.76710 | 10313 ft | 297 kts | 133° |
| 2026-05-06 19:15 | 42.30692 | -70.74713 | 10480 ft | 289 kts | 161° |
| 2026-05-06 19:15 | 42.28808 | -70.73903 | 10655 ft | 287 kts | 184° |
| 2026-05-06 19:16 | 42.26809 | -70.74170 | 10814 ft | 295 kts | 202° |
| 2026-05-06 19:16 | 42.24966 | -70.75466 | 10960 ft | 307 kts | 221° |
| 2026-05-06 19:16 | 42.23591 | -70.77683 | 11390 ft | 318 kts | 238° |
| 2026-05-06 19:16 | 42.22763 | -70.80488 | 12039 ft | 326 kts | 251° |
| 2026-05-06 19:17 | 42.22260 | -70.83485 | 12776 ft | 328 kts | 255° |
| 2026-05-06 19:17 | 42.21845 | -70.86531 | 13441 ft | 331 kts | 256° |
| 2026-05-06 19:17 | 42.21440 | -70.89602 | 14029 ft | 333 kts | 256° |
| 2026-05-06 19:17 | 42.21023 | -70.92685 | 14545 ft | 335 kts | 256° |
| 2026-05-06 19:18 | 42.20584 | -70.95798 | 15052 ft | 338 kts | 256° |
| 2026-05-06 19:18 | 42.20132 | -70.98912 | 15668 ft | 338 kts | 256° |
| 2026-05-06 19:18 | 42.19669 | -71.02035 | 15963 ft | 340 kts | 256° |
| 2026-05-06 19:18 | 42.19206 | -71.05115 | 15999 ft | 337 kts | 256° |
| 2026-05-06 19:19 | 42.18734 | -71.08219 | 16001 ft | 338 kts | 256° |
| 2026-05-06 19:19 | 42.18259 | -71.11327 | 16013 ft | 338 kts | 256° |
| 2026-05-06 19:19 | 42.17782 | -71.14429 | 16017 ft | 338 kts | 256° |
| 2026-05-06 19:19 | 42.17305 | -71.17528 | 16015 ft | 338 kts | 256° |
| 2026-05-06 19:20 | 42.16824 | -71.20640 | 16018 ft | 338 kts | 256° |
| 2026-05-06 19:20 | 42.16350 | -71.23700 | 16015 ft | 337 kts | 255° |
| 2026-05-06 19:20 | 42.15868 | -71.26806 | 16019 ft | 337 kts | 255° |
| 2026-05-06 19:20 | 42.15388 | -71.29899 | 16022 ft | 337 kts | 255° |
| 2026-05-06 19:21 | 42.14905 | -71.32997 | 16018 ft | 337 kts | 256° |
| 2026-05-06 19:21 | 42.14423 | -71.36088 | 16022 ft | 337 kts | 255° |
| 2026-05-06 19:21 | 42.13944 | -71.39153 | 16023 ft | 337 kts | 255° |
| 2026-05-06 19:21 | 42.13459 | -71.42248 | 16027 ft | 337 kts | 255° |
| 2026-05-06 19:22 | 42.12974 | -71.45343 | 16025 ft | 337 kts | 255° |
| 2026-05-06 19:22 | 42.12488 | -71.48436 | 16027 ft | 337 kts | 255° |
| 2026-05-06 19:22 | 42.11999 | -71.51537 | 16030 ft | 337 kts | 255° |
| 2026-05-06 19:22 | 42.11511 | -71.54634 | 16017 ft | 338 kts | 255° |
| 2026-05-06 19:23 | 42.11027 | -71.57698 | 16040 ft | 338 kts | 256° |
| 2026-05-06 19:23 | 42.10536 | -71.60801 | 16032 ft | 339 kts | 256° |
| 2026-05-06 19:23 | 42.10044 | -71.63906 | 16040 ft | 340 kts | 255° |
| 2026-05-06 19:23 | 42.09548 | -71.67027 | 16023 ft | 341 kts | 255° |
| 2026-05-06 19:24 | 42.09051 | -71.70150 | 16026 ft | 341 kts | 255° |
| 2026-05-06 19:24 | 42.08563 | -71.73292 | 16016 ft | 340 kts | 256° |
| 2026-05-06 19:24 | 42.08101 | -71.76408 | 16011 ft | 339 kts | 256° |
| 2026-05-06 19:24 | 42.07650 | -71.79490 | 16014 ft | 338 kts | 256° |
| 2026-05-06 19:25 | 42.07195 | -71.82597 | 16021 ft | 338 kts | 256° |
| 2026-05-06 19:25 | 42.06738 | -71.85711 | 16019 ft | 338 kts | 256° |
| 2026-05-06 19:25 | 42.06279 | -71.88816 | 16009 ft | 338 kts | 256° |
| 2026-05-06 19:25 | 42.05820 | -71.91915 | 16032 ft | 337 kts | 256° |
| 2026-05-06 19:26 | 42.05360 | -71.95014 | 16041 ft | 338 kts | 256° |
| 2026-05-06 19:26 | 42.04902 | -71.98088 | 16032 ft | 340 kts | 256° |
| 2026-05-06 19:26 | 42.04432 | -72.01229 | 16022 ft | 342 kts | 256° |
| 2026-05-06 19:26 | 42.03962 | -72.04370 | 16003 ft | 342 kts | 256° |
| 2026-05-06 19:27 | 42.03492 | -72.07508 | 16002 ft | 341 kts | 256° |
| 2026-05-06 19:27 | 42.03024 | -72.10625 | 16015 ft | 338 kts | 256° |
| 2026-05-06 19:27 | 42.02558 | -72.13721 | 16013 ft | 337 kts | 256° |
| 2026-05-06 19:27 | 42.02093 | -72.16802 | 15997 ft | 336 kts | 256° |
| 2026-05-06 19:28 | 42.01627 | -72.19889 | 16001 ft | 336 kts | 256° |
| 2026-05-06 19:28 | 42.01165 | -72.22934 | 16008 ft | 336 kts | 256° |
| 2026-05-06 19:28 | 42.00696 | -72.26026 | 16019 ft | 336 kts | 256° |
| 2026-05-06 19:28 | 42.00230 | -72.29091 | 16006 ft | 337 kts | 256° |
| 2026-05-06 19:29 | 41.99756 | -72.32201 | 16008 ft | 338 kts | 256° |
| 2026-05-06 19:29 | 41.99282 | -72.35308 | 15996 ft | 339 kts | 256° |
| 2026-05-06 19:29 | 41.98810 | -72.38394 | 15987 ft | 340 kts | 256° |
| 2026-05-06 19:29 | 41.98331 | -72.41521 | 15994 ft | 341 kts | 256° |
| 2026-05-06 19:30 | 41.97849 | -72.44663 | 16005 ft | 342 kts | 256° |
| 2026-05-06 19:30 | 41.97368 | -72.47792 | 15987 ft | 342 kts | 256° |
| 2026-05-06 19:30 | 41.96885 | -72.50928 | 15995 ft | 342 kts | 256° |
| 2026-05-06 19:30 | 41.96402 | -72.54057 | 15988 ft | 342 kts | 256° |
| 2026-05-06 19:31 | 41.95918 | -72.57186 | 15978 ft | 341 kts | 256° |
| 2026-05-06 19:31 | 41.95442 | -72.60264 | 16006 ft | 340 kts | 256° |
| 2026-05-06 19:31 | 41.94472 | -72.66510 | 15990 ft | 341 kts | 256° |
| 2026-05-06 19:32 | 41.93973 | -72.69592 | 15992 ft | 340 kts | 253° |
| 2026-05-06 19:32 | 41.93321 | -72.72644 | 15993 ft | 340 kts | 251° |
| 2026-05-06 19:32 | 41.92592 | -72.75673 | 15996 ft | 340 kts | 250° |
| 2026-05-06 19:32 | 41.91844 | -72.78697 | 15969 ft | 341 kts | 250° |
| 2026-05-06 19:33 | 41.91096 | -72.81721 | 15990 ft | 341 kts | 250° |
| 2026-05-06 19:33 | 41.90352 | -72.84755 | 15986 ft | 341 kts | 250° |
| 2026-05-06 19:33 | 41.89625 | -72.87744 | 15988 ft | 341 kts | 250° |
| 2026-05-06 19:33 | 41.88889 | -72.90783 | 15997 ft | 341 kts | 250° |
| 2026-05-06 19:34 | 41.88158 | -72.93813 | 15995 ft | 341 kts | 250° |
| 2026-05-06 19:34 | 41.87427 | -72.96849 | 16028 ft | 342 kts | 251° |
| 2026-05-06 19:34 | 41.86695 | -72.99888 | 16008 ft | 341 kts | 251° |
| 2026-05-06 19:34 | 41.85972 | -73.02891 | 15999 ft | 341 kts | 251° |
| 2026-05-06 19:35 | 41.85242 | -73.05920 | 16005 ft | 340 kts | 251° |
| 2026-05-06 19:35 | 41.84513 | -73.08942 | 16012 ft | 340 kts | 251° |
| 2026-05-06 19:35 | 41.83786 | -73.11951 | 16018 ft | 339 kts | 251° |
| 2026-05-06 19:35 | 41.83056 | -73.14969 | 16027 ft | 340 kts | 251° |
| 2026-05-06 19:36 | 41.82324 | -73.17994 | 16018 ft | 341 kts | 250° |
| 2026-05-06 19:36 | 41.81599 | -73.20983 | 16032 ft | 342 kts | 251° |
| 2026-05-06 19:36 | 41.80861 | -73.24020 | 16019 ft | 343 kts | 251° |
| 2026-05-06 19:36 | 41.80121 | -73.27067 | 16003 ft | 344 kts | 251° |
| 2026-05-06 19:37 | 41.79376 | -73.30125 | 16017 ft | 345 kts | 251° |
| 2026-05-06 19:37 | 41.78635 | -73.33164 | 15991 ft | 345 kts | 250° |
| 2026-05-06 19:37 | 41.77892 | -73.36209 | 16003 ft | 343 kts | 250° |
| 2026-05-06 19:37 | 41.77389 | -73.38268 | 15989 ft | 344 kts | 250° |
| 2026-05-06 19:38 | 41.76396 | -73.42327 | 16003 ft | 345 kts | 251° |
| 2026-05-06 19:38 | 41.75654 | -73.45355 | 15978 ft | 345 kts | 250° |
| 2026-05-06 19:38 | 41.74907 | -73.48402 | 15980 ft | 343 kts | 250° |
| 2026-05-06 19:38 | 41.74162 | -73.51432 | 15968 ft | 342 kts | 250° |
| 2026-05-06 19:39 | 41.73418 | -73.54455 | 15967 ft | 341 kts | 250° |
| 2026-05-06 19:39 | 41.72677 | -73.57467 | 15967 ft | 341 kts | 250° |
| 2026-05-06 19:39 | 41.71932 | -73.60486 | 15980 ft | 341 kts | 250° |
| 2026-05-06 19:39 | 41.71195 | -73.63473 | 15964 ft | 342 kts | 250° |
| 2026-05-06 19:40 | 41.70447 | -73.66497 | 15972 ft | 342 kts | 250° |
| 2026-05-06 19:40 | 41.69697 | -73.69528 | 15963 ft | 343 kts | 250° |
| 2026-05-06 19:40 | 41.68942 | -73.72572 | 15974 ft | 344 kts | 250° |
| 2026-05-06 19:40 | 41.68198 | -73.75576 | 15965 ft | 344 kts | 250° |
| 2026-05-06 19:41 | 41.67456 | -73.78562 | 15952 ft | 330 kts | 250° |
| 2026-05-06 19:41 | 41.66751 | -73.81401 | 15947 ft | 314 kts | 250° |
| 2026-05-06 19:41 | 41.66084 | -73.84125 | 15764 ft | 305 kts | 251° |
| 2026-05-06 19:41 | 41.65452 | -73.86795 | 15534 ft | 297 kts | 251° |
| 2026-05-06 19:42 | 41.64834 | -73.89423 | 15182 ft | 294 kts | 251° |
| 2026-05-06 19:42 | 41.64223 | -73.92023 | 14813 ft | 292 kts | 251° |
| 2026-05-06 19:42 | 41.63614 | -73.94606 | 14419 ft | 290 kts | 251° |
| 2026-05-06 19:42 | 41.63007 | -73.97177 | 14023 ft | 289 kts | 251° |
| 2026-05-06 19:43 | 41.62400 | -73.99737 | 13644 ft | 289 kts | 251° |
| 2026-05-06 19:43 | 41.61799 | -74.02269 | 13222 ft | 289 kts | 251° |
| 2026-05-06 19:43 | 41.61191 | -74.04827 | 12793 ft | 288 kts | 251° |
| 2026-05-06 19:43 | 41.60583 | -74.07383 | 12380 ft | 288 kts | 251° |
| 2026-05-06 19:44 | 41.59977 | -74.09924 | 11996 ft | 286 kts | 251° |
| 2026-05-06 19:44 | 41.59373 | -74.12459 | 11585 ft | 286 kts | 251° |
| 2026-05-06 19:44 | 41.58772 | -74.14979 | 11201 ft | 285 kts | 251° |
| 2026-05-06 19:44 | 41.58169 | -74.17499 | 10797 ft | 285 kts | 251° |
| 2026-05-06 19:45 | 41.57567 | -74.20017 | 10453 ft | 282 kts | 251° |
| 2026-05-06 19:45 | 41.56980 | -74.22473 | 10324 ft | 272 kts | 251° |
| 2026-05-06 19:45 | 41.56416 | -74.24826 | 10196 ft | 263 kts | 251° |
| 2026-05-06 19:45 | 41.55867 | -74.27115 | 10085 ft | 254 kts | 251° |
| 2026-05-06 19:46 | 41.55336 | -74.29322 | 9945 ft | 245 kts | 251° |
| 2026-05-06 19:46 | 41.54766 | -74.31470 | 9612 ft | 245 kts | 242° |
| 2026-05-06 19:46 | 41.53684 | -74.33178 | 9303 ft | 246 kts | 223° |
| 2026-05-06 19:46 | 41.52214 | -74.34374 | 8973 ft | 250 kts | 207° |
| 2026-05-06 19:47 | 41.50572 | -74.35130 | 8680 ft | 250 kts | 203° |
| 2026-05-06 19:47 | 41.48911 | -74.35813 | 8364 ft | 249 kts | 202° |
| 2026-05-06 19:47 | 41.47260 | -74.36497 | 8038 ft | 248 kts | 203° |
| 2026-05-06 19:47 | 41.45615 | -74.37192 | 7728 ft | 247 kts | 203° |
| 2026-05-06 19:48 | 41.43997 | -74.37883 | 7431 ft | 246 kts | 203° |
| 2026-05-06 19:48 | 41.42362 | -74.38585 | 7117 ft | 246 kts | 203° |
| 2026-05-06 19:48 | 41.40751 | -74.39276 | 6995 ft | 239 kts | 203° |
| 2026-05-06 19:48 | 41.39154 | -74.39963 | 6901 ft | 242 kts | 203° |
| 2026-05-06 19:49 | 41.37545 | -74.40658 | 6837 ft | 248 kts | 203° |
| 2026-05-06 19:49 | 41.35891 | -74.41369 | 6763 ft | 250 kts | 203° |
| 2026-05-06 19:49 | 41.34210 | -74.42008 | 6665 ft | 255 kts | 192° |
| 2026-05-06 19:49 | 41.32417 | -74.41787 | 6543 ft | 265 kts | 171° |
| 2026-05-06 19:50 | 41.30646 | -74.41063 | 6452 ft | 266 kts | 168° |
| 2026-05-06 19:50 | 41.28882 | -74.40296 | 6332 ft | 267 kts | 168° |
| 2026-05-06 19:50 | 41.27134 | -74.39535 | 6237 ft | 268 kts | 167° |
| 2026-05-06 19:50 | 41.25368 | -74.38758 | 6121 ft | 266 kts | 168° |
| 2026-05-06 19:51 | 41.23617 | -74.37976 | 6025 ft | 265 kts | 167° |
| 2026-05-06 19:51 | 41.21897 | -74.37200 | 6008 ft | 255 kts | 167° |
| 2026-05-06 19:51 | 41.20260 | -74.36447 | 6002 ft | 241 kts | 167° |
| 2026-05-06 19:51 | 41.18717 | -74.35719 | 5977 ft | 230 kts | 167° |
| 2026-05-06 19:52 | 41.17222 | -74.35004 | 6021 ft | 228 kts | 167° |
| 2026-05-06 19:52 | 41.15724 | -74.34291 | 6029 ft | 231 kts | 167° |
| 2026-05-06 19:52 | 41.14202 | -74.33564 | 6034 ft | 233 kts | 168° |
| 2026-05-06 19:52 | 41.12670 | -74.32810 | 5953 ft | 235 kts | 167° |
| 2026-05-06 19:53 | 41.11654 | -74.32312 | 5865 ft | 232 kts | 167° |
| 2026-05-06 19:53 | 41.09660 | -74.31337 | 5690 ft | 229 kts | 167° |
| 2026-05-06 19:53 | 41.08672 | -74.30854 | 5610 ft | 226 kts | 168° |
| 2026-05-06 19:53 | 41.07201 | -74.30119 | 5515 ft | 226 kts | 168° |
| 2026-05-06 19:54 | 41.05712 | -74.29369 | 5390 ft | 228 kts | 167° |
| 2026-05-06 19:54 | 41.04226 | -74.28616 | 5257 ft | 231 kts | 167° |
| 2026-05-06 19:54 | 41.02716 | -74.27871 | 5168 ft | 231 kts | 167° |
| 2026-05-06 19:54 | 41.01208 | -74.27137 | 5061 ft | 228 kts | 167° |
| 2026-05-06 19:55 | 40.99731 | -74.26409 | 5008 ft | 228 kts | 168° |
| 2026-05-06 19:55 | 40.98243 | -74.25666 | 5027 ft | 229 kts | 167° |
| 2026-05-06 19:55 | 40.96758 | -74.24904 | 5021 ft | 230 kts | 162° |
| 2026-05-06 19:55 | 40.95527 | -74.23536 | 5017 ft | 242 kts | 129° |
| 2026-05-06 19:56 | 40.94958 | -74.21411 | 5018 ft | 251 kts | 102° |
| 2026-05-06 19:56 | 40.94792 | -74.19099 | 4972 ft | 255 kts | 98° |
| 2026-05-06 19:56 | 40.94649 | -74.16739 | 4818 ft | 258 kts | 98° |
| 2026-05-06 19:56 | 40.94512 | -74.14356 | 4654 ft | 258 kts | 97° |
| 2026-05-06 19:57 | 40.94381 | -74.12026 | 4507 ft | 256 kts | 97° |
| 2026-05-06 19:57 | 40.94185 | -74.09720 | 4300 ft | 247 kts | 111° |
| 2026-05-06 19:57 | 40.93387 | -74.07881 | 4125 ft | 217 kts | 143° |
| 2026-05-06 19:57 | 40.92323 | -74.06574 | 4018 ft | 201 kts | 149° |
| 2026-05-06 19:58 | 40.91167 | -74.05799 | 4006 ft | 181 kts | 177° |
| 2026-05-06 19:58 | 40.89917 | -74.05430 | 4013 ft | 187 kts | 177° |
| 2026-05-06 19:58 | 40.88636 | -74.05058 | 4018 ft | 189 kts | 177° |
| 2026-05-06 19:58 | 40.87347 | -74.04941 | 3760 ft | 180 kts | 204° |
| 2026-05-06 19:59 | 40.86322 | -74.05736 | 3497 ft | 167 kts | 219° |
| 2026-05-06 19:59 | 40.85251 | -74.06354 | 3236 ft | 168 kts | 206° |
| 2026-05-06 19:59 | 40.84178 | -74.06951 | 3070 ft | 165 kts | 212° |
| 2026-05-06 19:59 | 40.83147 | -74.07602 | 3058 ft | 166 kts | 213° |
| 2026-05-06 20:00 | 40.82104 | -74.08269 | 3009 ft | 167 kts | 212° |
| 2026-05-06 20:00 | 40.81070 | -74.08929 | 2995 ft | 164 kts | 212° |
| 2026-05-06 20:00 | 40.80046 | -74.09583 | 3005 ft | 163 kts | 212° |
| 2026-05-06 20:00 | 40.79038 | -74.10227 | 2747 ft | 159 kts | 212° |
| 2026-05-06 20:01 | 40.78048 | -74.10860 | 2213 ft | 158 kts | 212° |
| 2026-05-06 20:01 | 40.77063 | -74.11491 | 1693 ft | 157 kts | 211° |
| 2026-05-06 20:01 | 40.76114 | -74.12096 | 1440 ft | 148 kts | 210° |
| 2026-05-06 20:01 | 40.75200 | -74.12680 | 1205 ft | 142 kts | 209° |
| 2026-05-06 20:02 | 40.74309 | -74.13250 | 1025 ft | 144 kts | 207° |
| 2026-05-06 20:02 | 40.73405 | -74.13824 | 841 ft | 146 kts | 210° |
| 2026-05-06 20:02 | 40.72484 | -74.14416 | 607 ft | 146 kts | 208° |
| 2026-05-06 20:02 | 40.71570 | -74.14995 | 411 ft | 146 kts | 207° |
| 2026-05-06 20:03 | 40.70652 | -74.15585 | 237 ft | 147 kts | 206° |
| 2026-05-06 20:03 | 40.69728 | -74.16172 | 46 ft | 146 kts | 207° |
| 2026-05-06 20:03 | 40.68893 | -74.16702 | 21 ft | 114 kts | 206° |
| 2026-05-06 20:03 | 40.68368 | -74.17062 | 22 ft | 49 kts | 212° |
| 2026-05-06 20:04 | 40.68205 | -74.17294 | 21 ft | 19 kts | 236° |
| 2026-05-06 20:04 | 40.68161 | -74.17376 | 20 ft | 2 kts | 235° |
| 2026-05-06 20:04 | 40.68152 | -74.17394 | 21 ft | 2 kts | 234° |
| 2026-05-06 20:04 | 40.68143 | -74.17410 | 23 ft | 2 kts | 234° |
| 2026-05-06 20:05 | 40.68136 | -74.17428 | 20 ft | 2 kts | 262° |
| 2026-05-06 20:05 | 40.68147 | -74.17457 | 22 ft | 5 kts | 295° |
| 2026-05-06 20:05 | 40.68171 | -74.17526 | 20 ft | 11 kts | 295° |
| 2026-05-06 20:05 | 40.68204 | -74.17641 | 21 ft | 15 kts | 263° |
| 2026-05-06 20:06 | 40.68156 | -74.17768 | 21 ft | 16 kts | 281° |
| 2026-05-06 20:06 | 40.68200 | -74.17905 | 21 ft | 16 kts | 292° |
| 2026-05-06 20:06 | 40.68234 | -74.18039 | 21 ft | 15 kts | 275° |
| 2026-05-06 20:06 | 40.68235 | -74.18176 | 21 ft | 15 kts | 264° |
| 2026-05-06 20:07 | 40.68241 | -74.18233 | 21 ft | 2 kts | 339° |
| 2026-05-06 20:07 | 40.68257 | -74.18239 | 22 ft | 3 kts | 347° |
| 2026-05-06 20:07 | 40.68284 | -74.18246 | 23 ft | 4 kts | 349° |
| 2026-05-06 20:07 | 40.68294 | -74.18249 | 21 ft | 0 kts | 349° |